Time;durP1;ratioP1;P1;durP2;ratioP2;P2;SDS_P1;SDS_P2;PMS_P1;PMS_P2;Temp;Humidity;BMP_temperature;BMP_pressure;BME280_temperature;BME280_humidity;BME280_pressure;Samples;Min_cycle;Max_cycle;Signal;HPM_P1;HPM_P2
2021/10/27 00:01:47;;;;;;;21.15;7.05;;;;;;;13.89;100.00;102160.09;5015143;28;20040;-77
2021/10/27 00:04:13;;;;;;;28.23;6.97;;;;;;;13.91;100.00;102157.47;5016465;28;20422;-77
2021/10/27 00:06:38;;;;;;;21.45;6.57;;;;;;;13.92;100.00;102156.63;4998302;28;20030;-77
2021/10/27 00:09:04;;;;;;;17.77;6.03;;;;;;;13.93;100.00;102163.69;5002660;28;20030;-78
2021/10/27 00:11:31;;;;;;;22.50;7.03;;;;;;;13.92;100.00;102160.16;5014974;28;20083;-77
2021/10/27 00:13:56;;;;;;;20.30;6.93;;;;;;;14.02;100.00;102155.09;5013748;28;20042;-77
2021/10/27 00:16:21;;;;;;;25.02;6.47;;;;;;;14.01;100.00;102159.47;5014572;28;20033;-77
2021/10/27 00:18:47;;;;;;;24.95;6.93;;;;;;;14.00;100.00;102163.88;5016260;28;20485;-77
2021/10/27 00:21:12;;;;;;;25.27;6.72;;;;;;;13.96;100.00;102169.06;5015007;28;21317;-76
2021/10/27 00:23:38;;;;;;;22.92;5.80;;;;;;;13.96;100.00;102172.59;5016635;28;20045;-77
2021/10/27 00:26:04;;;;;;;20.63;7.15;;;;;;;14.00;100.00;102178.88;5014657;28;20098;-78
2021/10/27 00:28:29;;;;;;;23.83;7.03;;;;;;;13.99;100.00;102166.50;5015522;28;20116;-78
2021/10/27 00:30:54;;;;;;;22.38;7.43;;;;;;;14.02;100.00;102158.63;5030278;28;20037;-77
2021/10/27 00:33:20;;;;;;;20.20;6.93;;;;;;;14.01;100.00;102159.47;5016058;28;20030;-76
2021/10/27 00:35:46;;;;;;;26.00;6.78;;;;;;;14.06;100.00;102157.81;5016375;28;20100;-76
2021/10/27 00:38:11;;;;;;;21.23;7.35;;;;;;;14.07;100.00;102153.44;5014977;28;20030;-77
2021/10/27 00:40:37;;;;;;;23.35;7.78;;;;;;;14.08;100.00;102155.22;5015485;28;20129;-77
2021/10/27 00:43:02;;;;;;;31.10;7.68;;;;;;;14.07;100.00;102156.09;5015470;28;20084;-78
2021/10/27 00:45:28;;;;;;;19.52;7.63;;;;;;;14.06;100.00;102159.59;5016679;28;20117;-77
2021/10/27 00:47:53;;;;;;;20.02;8.00;;;;;;;14.10;100.00;102158.81;5013554;28;20390;-77
2021/10/27 00:50:18;;;;;;;20.30;8.43;;;;;;;14.06;100.00;102168.41;5015368;28;20026;-78
2021/10/27 00:52:44;;;;;;;22.80;9.43;;;;;;;14.03;100.00;102160.41;5017255;28;20033;-78
2021/10/27 00:55:10;;;;;;;20.70;9.68;;;;;;;13.99;100.00;102161.19;5018400;28;20469;-78
2021/10/27 00:57:37;;;;;;;26.83;9.60;;;;;;;13.98;100.00;102165.59;5015312;28;20057;-78
2021/10/27 01:00:07;;;;;;;21.92;10.15;;;;;;;13.96;100.00;102172.59;5013667;28;20085;-78
2021/10/27 01:02:32;;;;;;;22.33;10.05;;;;;;;13.90;100.00;102175.09;5014363;28;20466;-78
2021/10/27 01:04:58;;;;;;;20.27;9.93;;;;;;;13.87;100.00;102169.72;5014358;28;20113;-76
2021/10/27 01:07:23;;;;;;;22.40;9.52;;;;;;;13.85;100.00;102166.16;5014741;28;20565;-77
2021/10/27 01:09:49;;;;;;;25.95;9.00;;;;;;;13.89;100.00;102164.47;5016038;28;20068;-77
2021/10/27 01:12:15;;;;;;;24.73;8.90;;;;;;;13.81;100.00;102166.94;5013430;28;20105;-77
2021/10/27 01:14:43;;;;;;;17.30;7.93;;;;;;;13.82;100.00;102163.41;5015304;28;20037;-77
2021/10/27 01:17:10;;;;;;;23.25;8.70;;;;;;;13.77;100.00;102165.97;5014698;28;20025;-76
2021/10/27 01:19:41;;;;;;;22.73;7.63;;;;;;;13.77;100.00;102176.56;5013924;28;20030;-77
2021/10/27 01:22:07;;;;;;;24.73;7.80;;;;;;;13.83;100.00;102181.09;5021325;28;20034;-78
2021/10/27 01:24:32;;;;;;;26.67;8.18;;;;;;;13.79;100.00;102174.81;5016919;28;20432;-78
2021/10/27 01:26:57;;;;;;;24.25;8.32;;;;;;;13.78;100.00;102173.06;5014180;28;20143;-75
2021/10/27 01:29:23;;;;;;;21.70;8.05;;;;;;;13.85;100.00;102175.84;5014030;28;20091;-77
2021/10/27 01:31:48;;;;;;;21.50;8.15;;;;;;;13.87;100.00;102177.66;5014549;28;20117;-78
2021/10/27 01:34:14;;;;;;;23.83;7.43;;;;;;;13.89;100.00;102175.97;5013599;28;20390;-77
2021/10/27 01:36:39;;;;;;;22.42;7.82;;;;;;;13.83;100.00;102176.69;5013599;28;20090;-76
2021/10/27 01:39:04;;;;;;;18.80;6.95;;;;;;;13.80;100.00;102171.31;5013497;28;20026;-76
2021/10/27 01:41:30;;;;;;;21.25;7.22;;;;;;;13.80;100.00;102179.25;5011863;28;20056;-76
2021/10/27 01:43:57;;;;;;;23.27;7.80;;;;;;;13.76;100.00;102169.47;5013816;28;20026;-77
2021/10/27 01:46:31;;;;;;;28.05;9.00;;;;;;;13.76;100.00;102169.47;5012550;28;20028;-76
2021/10/27 01:48:58;;;;;;;21.73;7.28;;;;;;;13.82;100.00;102160.78;5010546;28;20080;-77
2021/10/27 01:51:25;;;;;;;24.70;7.70;;;;;;;13.75;100.00;102151.78;5011275;28;20026;-75
2021/10/27 01:53:51;;;;;;;15.35;6.55;;;;;;;13.74;100.00;102165.91;5017731;28;20100;-78
2021/10/27 01:56:16;;;;;;;17.35;6.60;;;;;;;13.71;100.00;102160.50;5014184;28;20029;-78
2021/10/27 01:58:41;;;;;;;21.45;7.07;;;;;;;13.72;100.00;102154.38;5012428;28;20026;-76
2021/10/27 02:01:07;;;;;;;22.35;6.90;;;;;;;13.77;100.00;102154.50;5014706;28;20037;-76
2021/10/27 02:03:32;;;;;;;18.02;6.47;;;;;;;13.75;100.00;102162.38;5012681;28;20107;-77
2021/10/27 02:05:57;;;;;;;24.98;6.75;;;;;;;13.77;100.00;102144.81;5013078;28;20037;-75
2021/10/27 02:08:22;;;;;;;20.58;6.55;;;;;;;13.77;100.00;102141.28;5013803;28;20049;-76
2021/10/27 02:10:48;;;;;;;18.00;6.13;;;;;;;13.72;100.00;102151.72;5015068;28;20033;-76
2021/10/27 02:13:13;;;;;;;22.60;6.38;;;;;;;13.76;100.00;102147.41;5011634;28;20038;-77
2021/10/27 02:15:39;;;;;;;16.42;5.22;;;;;;;13.80;100.00;102142.22;5013982;28;20482;-77
2021/10/27 02:18:04;;;;;;;14.75;5.50;;;;;;;13.74;100.00;102143.81;5013803;28;20034;-76
2021/10/27 02:20:29;;;;;;;16.70;5.18;;;;;;;13.76;100.00;102137.72;5014051;28;20429;-77
2021/10/27 02:22:55;;;;;;;9.68;4.43;;;;;;;13.76;100.00;102132.44;5013169;28;20025;-77
2021/10/27 02:25:20;;;;;;;23.77;5.93;;;;;;;13.76;100.00;102137.72;5017073;28;20502;-77
2021/10/27 02:27:45;;;;;;;15.13;4.32;;;;;;;13.70;100.00;102137.59;5015334;28;20382;-77
2021/10/27 02:30:11;;;;;;;17.70;4.72;;;;;;;13.73;100.00;102137.66;5014436;28;20029;-77
2021/10/27 02:32:37;;;;;;;17.05;4.50;;;;;;;13.75;100.00;102124.47;5013494;28;20026;-77
2021/10/27 02:35:02;;;;;;;14.77;4.55;;;;;;;13.71;100.00;102128.75;5013744;28;20083;-77
2021/10/27 02:37:28;;;;;;;15.60;4.50;;;;;;;13.77;100.00;102134.22;5013756;28;20026;-77
2021/10/27 02:39:53;;;;;;;11.80;3.90;;;;;;;13.73;100.00;102132.34;5014804;28;20382;-78
2021/10/27 02:42:18;;;;;;;14.63;4.53;;;;;;;13.75;100.00;102137.69;5012989;28;20137;-78
2021/10/27 02:44:44;;;;;;;17.42;4.35;;;;;;;13.78;100.00;102133.38;5013914;28;20032;-77
2021/10/27 02:47:09;;;;;;;16.35;4.30;;;;;;;13.80;100.00;102139.56;5013540;28;20085;-78
2021/10/27 02:49:35;;;;;;;18.50;4.82;;;;;;;13.82;100.00;102144.91;5013162;28;20112;-78
2021/10/27 02:52:00;;;;;;;14.55;3.72;;;;;;;13.82;100.00;102152.84;5011890;28;20049;-77
2021/10/27 02:54:25;;;;;;;14.15;3.95;;;;;;;13.79;100.00;102152.78;5013230;28;20108;-77
2021/10/27 02:56:51;;;;;;;14.57;4.00;;;;;;;13.74;100.00;102155.31;5013121;28;20049;-77
2021/10/27 02:59:16;;;;;;;25.60;5.00;;;;;;;13.72;100.00;102149.09;5015119;28;20108;-77
2021/10/27 03:01:41;;;;;;;16.83;5.22;;;;;;;13.70;100.00;102142.88;5013875;28;20030;-77
2021/10/27 03:04:08;;;;;;;15.88;3.67;;;;;;;13.68;100.00;102151.63;5012905;28;20044;-77
2021/10/27 03:06:34;;;;;;;16.52;4.20;;;;;;;13.62;100.00;102155.03;5012253;28;20112;-77
2021/10/27 03:08:59;;;;;;;16.52;5.03;;;;;;;13.62;100.00;102150.63;5014031;28;20452;-77
2021/10/27 03:11:25;;;;;;;22.95;5.03;;;;;;;13.58;100.00;102146.09;5011676;28;20433;-77
2021/10/27 03:13:50;;;;;;;16.80;4.68;;;;;;;13.57;100.00;102140.78;5011993;28;20068;-77
2021/10/27 03:16:16;;;;;;;15.25;5.00;;;;;;;13.60;100.00;102143.50;5014442;28;20022;-78
2021/10/27 03:18:41;;;;;;;17.60;5.05;;;;;;;13.52;100.00;102143.28;5013988;28;20529;-77
2021/10/27 03:21:07;;;;;;;18.83;4.80;;;;;;;13.51;100.00;102149.47;5013092;28;20049;-78
2021/10/27 03:23:32;;;;;;;19.70;4.63;;;;;;;13.54;100.00;102156.53;5014084;28;20072;-78
2021/10/27 03:25:58;;;;;;;16.75;4.95;;;;;;;13.53;100.00;102157.44;5012554;28;20026;-76
2021/10/27 03:28:24;;;;;;;16.52;4.88;;;;;;;13.58;100.00;102153.13;5011629;28;20542;-78
2021/10/27 03:30:49;;;;;;;15.57;4.68;;;;;;;13.53;100.00;102150.38;5013916;28;20095;-78
2021/10/27 03:33:15;;;;;;;12.60;5.05;;;;;;;13.53;100.00;102142.44;5013221;28;20103;-77
2021/10/27 03:35:40;;;;;;;16.35;5.65;;;;;;;13.57;100.00;102141.66;5012997;28;20041;-78
2021/10/27 03:38:05;;;;;;;17.85;5.28;;;;;;;13.53;100.00;102145.09;5012655;28;20121;-77
2021/10/27 03:40:31;;;;;;;15.85;5.05;;;;;;;13.56;100.00;102149.56;5027065;28;20029;-78
2021/10/27 03:42:56;;;;;;;13.77;4.57;;;;;;;13.57;100.00;102143.44;5015482;28;20025;-78
2021/10/27 03:45:21;;;;;;;16.05;5.13;;;;;;;13.55;100.00;102142.47;5018973;28;20061;-77
2021/10/27 03:47:47;;;;;;;11.43;4.45;;;;;;;13.55;100.00;102147.75;5020876;28;20478;-76
2021/10/27 03:50:14;;;;;;;18.25;4.50;;;;;;;13.58;100.00;102163.69;5012306;28;20393;-79
2021/10/27 03:52:42;;;;;;;12.77;3.88;;;;;;;13.54;100.00;102140.69;5013407;28;20026;-76
2021/10/27 03:55:08;;;;;;;16.33;4.38;;;;;;;13.61;100.00;102153.22;5013014;28;20033;-77
2021/10/27 03:57:33;;;;;;;13.95;4.35;;;;;;;13.60;100.00;102156.72;5012417;28;20037;-76
2021/10/27 03:59:59;;;;;;;16.77;4.70;;;;;;;13.59;100.00;102152.28;5015554;28;20017;-77
2021/10/27 04:02:25;;;;;;;18.52;5.03;;;;;;;13.54;100.00;102151.25;5010501;28;20041;-77
2021/10/27 04:04:51;;;;;;;12.80;4.53;;;;;;;13.49;100.00;102159.09;5012347;28;20033;-78
2021/10/27 04:07:16;;;;;;;16.27;4.60;;;;;;;13.46;100.00;102149.31;5017000;28;20133;-78
2021/10/27 04:09:41;;;;;;;21.75;5.75;;;;;;;13.43;100.00;102154.53;5016134;28;20112;-78
2021/10/27 04:12:07;;;;;;;18.75;5.10;;;;;;;13.47;100.00;102151.13;5015950;28;20530;-77
2021/10/27 04:14:33;;;;;;;20.08;5.55;;;;;;;13.47;100.00;102161.69;5016313;28;20026;-78
2021/10/27 04:16:58;;;;;;;17.70;5.85;;;;;;;13.47;100.00;102155.53;5016602;28;20508;-77
2021/10/27 04:19:23;;;;;;;15.93;4.90;;;;;;;13.48;100.00;102152.91;5013529;28;20045;-78
2021/10/27 04:21:50;;;;;;;17.92;5.45;;;;;;;13.50;100.00;102147.66;5015283;28;20026;-78
2021/10/27 04:24:16;;;;;;;13.70;4.20;;;;;;;13.49;100.00;102152.03;5015620;28;20068;-77
2021/10/27 04:26:41;;;;;;;18.98;4.45;;;;;;;13.51;100.00;102145.91;5021580;28;20077;-78
2021/10/27 04:29:06;;;;;;;12.35;4.13;;;;;;;13.54;100.00;102146.88;5020046;28;20489;-78
2021/10/27 04:31:32;;;;;;;10.85;4.40;;;;;;;13.55;100.00;102153.06;5015774;28;20041;-75
2021/10/27 04:33:58;;;;;;;12.02;3.90;;;;;;;13.54;100.00;102159.19;5015730;28;20022;-75
2021/10/27 04:36:23;;;;;;;20.33;4.75;;;;;;;13.59;100.00;102152.28;5015539;28;20463;-76
2021/10/27 04:38:49;;;;;;;9.20;4.30;;;;;;;13.55;100.00;102151.31;5015101;28;20505;-76
2021/10/27 04:41:14;;;;;;;8.95;4.28;;;;;;;13.59;100.00;102144.34;5015478;28;20416;-76
2021/10/27 04:43:40;;;;;;;13.07;4.25;;;;;;;13.58;100.00;102151.38;5015317;28;20026;-77
2021/10/27 04:46:06;;;;;;;11.82;4.55;;;;;;;13.55;100.00;102151.31;5016325;28;20034;-77
2021/10/27 04:48:32;;;;;;;13.73;4.65;;;;;;;13.54;100.00;102156.53;5016236;28;20034;-78
2021/10/27 04:50:57;;;;;;;10.77;3.80;;;;;;;13.56;100.00;102154.84;5014943;28;20038;-77
2021/10/27 04:53:25;;;;;;;13.55;4.85;;;;;;;13.62;100.00;102157.66;5015516;28;20116;-78
2021/10/27 04:55:52;;;;;;;9.55;3.80;;;;;;;13.59;100.00;102157.56;5015888;28;20026;-78
2021/10/27 04:58:17;;;;;;;21.10;5.07;;;;;;;13.53;100.00;102154.78;5015191;28;20132;-77
2021/10/27 05:00:43;;;;;;;16.67;5.18;;;;;;;13.48;100.00;102152.91;5015259;28;20162;-77
2021/10/27 05:03:09;;;;;;;15.10;4.25;;;;;;;13.48;100.00;102144.97;5014088;28;20034;-77
2021/10/27 05:05:41;;;;;;;14.35;4.60;;;;;;;13.50;100.00;102150.31;5013348;28;20040;-77
2021/10/27 05:08:06;;;;;;;9.25;4.30;;;;;;;13.58;100.00;102155.75;5019816;28;20033;-77
2021/10/27 05:10:32;;;;;;;14.88;4.72;;;;;;;13.53;100.00;102155.66;5010985;28;20062;-77
2021/10/27 05:12:57;;;;;;;14.57;4.60;;;;;;;13.47;100.00;102160.81;5013707;28;20088;-77
2021/10/27 05:15:23;;;;;;;16.60;5.72;;;;;;;13.49;100.00;102157.31;5013799;28;20088;-77
2021/10/27 05:17:48;;;;;;;17.75;5.07;;;;;;;13.48;100.00;102163.50;5014469;28;20030;-76
2021/10/27 05:20:14;;;;;;;10.82;4.72;;;;;;;13.44;100.00;102150.13;5015412;28;20030;-75
2021/10/27 05:22:39;;;;;;;14.63;4.47;;;;;;;13.53;100.00;102149.50;5013575;28;20085;-76
2021/10/27 05:25:05;;;;;;;16.27;5.07;;;;;;;13.53;100.00;102155.66;5011178;28;20450;-77
2021/10/27 05:27:31;;;;;;;12.57;5.35;;;;;;;13.52;100.00;102148.56;5013404;28;20104;-77
2021/10/27 05:29:57;;;;;;;15.90;5.32;;;;;;;13.55;100.00;102153.06;5013538;28;20034;-78
2021/10/27 05:32:24;;;;;;;9.88;4.38;;;;;;;13.53;100.00;102154.78;5013795;28;20049;-79
2021/10/27 05:34:49;;;;;;;11.77;4.80;;;;;;;13.52;100.00;102148.56;5014831;28;20069;-78
2021/10/27 05:37:15;;;;;;;9.02;4.72;;;;;;;13.55;100.00;102150.41;5012518;28;20049;-77
2021/10/27 05:39:40;;;;;;;14.57;5.05;;;;;;;13.54;100.00;102156.53;5016793;28;20033;-77
2021/10/27 05:42:09;;;;;;;11.88;4.47;;;;;;;13.52;100.00;102148.56;5015195;28;20026;-78
2021/10/27 05:44:35;;;;;;;16.25;4.70;;;;;;;13.53;100.00;102149.50;5012292;28;20034;-78
2021/10/27 05:47:00;;;;;;;11.30;4.45;;;;;;;13.53;100.00;102155.66;5005290;28;20052;-77
2021/10/27 05:55:03;;;;;;;12.07;4.20;;;;;;;13.56;100.00;102149.56;5015042;28;20120;-78
2021/10/27 06:00:00;;;;;;;10.35;4.18;;;;;;;13.55;100.00;102163.63;5014363;28;20410;-76
2021/10/27 06:02:25;;;;;;;9.25;3.70;;;;;;;13.59;100.00;102162.84;5018527;28;20045;-77
2021/10/27 06:04:51;;;;;;;14.40;4.70;;;;;;;13.59;100.00;102168.13;5014883;28;20160;-78
2021/10/27 06:07:16;;;;;;;14.57;4.47;;;;;;;13.58;100.00;102167.25;5013853;28;20067;-77
2021/10/27 06:09:42;;;;;;;13.18;4.13;;;;;;;13.62;100.00;102157.66;5014763;28;20334;-76
2021/10/27 06:12:12;;;;;;;13.35;4.35;;;;;;;13.63;99.81;102154.13;5014729;28;20034;-78
2021/10/27 06:14:38;;;;;;;10.32;4.07;;;;;;;13.62;99.88;102158.53;5014998;28;20030;-77
2021/10/27 06:17:04;;;;;;;12.30;4.78;;;;;;;13.71;99.83;102164.91;5014855;28;20104;-77
2021/10/27 06:19:29;;;;;;;12.35;4.00;;;;;;;13.73;99.23;102163.22;5013042;28;20092;-77
2021/10/27 06:21:54;;;;;;;11.32;4.40;;;;;;;13.65;99.51;102160.38;5019556;28;20030;-77
2021/10/27 06:24:19;;;;;;;12.18;3.83;;;;;;;13.67;99.85;102169.22;5014444;28;20042;-77
2021/10/27 06:26:45;;;;;;;15.25;4.00;;;;;;;13.69;99.52;102170.19;5013084;28;20050;-76
2021/10/27 06:29:20;;;;;;;15.25;4.35;;;;;;;13.64;99.77;102174.44;5013170;28;20036;-77
2021/10/27 06:31:50;;;;;;;11.45;4.00;;;;;;;13.62;99.97;102174.41;5014619;28;20069;-77
2021/10/27 06:34:38;;;;;;;12.52;4.50;;;;;;;13.61;100.00;102174.38;5009158;28;20018;-77
2021/10/27 06:47:59;;;;;;;16.90;5.97;;;;;;;13.51;100.00;102207.63;5015284;28;20080;-76
2021/10/27 06:50:24;;;;;;;21.48;5.53;;;;;;;13.53;100.00;102212.97;5014093;28;20022;-77
2021/10/27 06:52:49;;;;;;;13.95;5.90;;;;;;;13.48;100.00;102211.09;5016997;28;20024;-76
2021/10/27 06:55:16;;;;;;;9.57;4.75;;;;;;;13.48;100.00;102215.47;5012993;28;20474;-75
2021/10/27 06:57:42;;;;;;;16.67;5.85;;;;;;;13.49;100.00;102220.78;5011833;28;20041;-74
2021/10/27 07:00:21;;;;;;;16.98;5.05;;;;;;;13.51;100.00;102217.28;5011146;28;20512;-75
2021/10/27 07:16:25;;;;;;;12.55;4.45;;;;;;;13.59;100.00;102228.97;5013564;28;20084;-75
2021/10/27 07:18:51;;;;;;;18.55;5.32;;;;;;;13.56;100.00;102226.25;5014133;28;20034;-75
2021/10/27 07:21:16;;;;;;;13.38;5.25;;;;;;;13.63;100.00;102233.50;5013802;28;20030;-75
2021/10/27 07:23:42;;;;;;;20.17;5.78;;;;;;;13.65;99.88;102232.69;5012455;28;20033;-75
2021/10/27 07:26:08;;;;;;;11.27;5.20;;;;;;;13.73;99.38;102232.00;5013429;28;20058;-75
2021/10/27 07:28:34;;;;;;;10.02;4.80;;;;;;;13.69;99.32;102225.72;5023066;28;20539;-75
2021/10/27 07:31:01;;;;;;;10.00;4.75;;;;;;;13.71;99.39;102228.41;5014292;28;20105;-75
2021/10/27 07:33:28;;;;;;;13.73;4.75;;;;;;;13.65;99.34;102232.69;5028665;28;20028;-75
2021/10/27 07:35:58;;;;;;;10.20;4.70;;;;;;;13.71;99.33;102229.28;5013831;28;20112;-75
2021/10/27 07:41:10;;;;;;;15.02;5.78;;;;;;;13.69;99.30;102238.94;5015673;28;20029;-76
2021/10/27 07:43:36;;;;;;;14.35;5.80;;;;;;;13.72;99.22;102236.38;5018205;28;20041;-75
2021/10/27 07:46:01;;;;;;;11.63;4.45;;;;;;;13.70;99.42;102240.75;5017063;28;20018;-75
2021/10/27 07:48:29;;;;;;;11.68;4.53;;;;;;;13.69;99.35;102244.25;5017666;28;20486;-75
2021/10/27 07:50:54;;;;;;;12.30;4.90;;;;;;;13.70;99.39;102243.41;5018162;28;20045;-76
2021/10/27 07:53:20;;;;;;;10.77;4.47;;;;;;;13.69;99.13;102246.88;5016819;28;20568;-74
2021/10/27 07:55:49;;;;;;;13.63;4.20;;;;;;;13.71;99.26;102245.16;5017366;28;20084;-75
2021/10/27 07:58:15;;;;;;;11.30;4.32;;;;;;;13.73;98.67;102242.59;5017504;28;20026;-76
2021/10/27 08:00:40;;;;;;;13.93;4.45;;;;;;;13.80;98.39;102248.06;5017322;28;20060;-74
2021/10/27 08:03:06;;;;;;;14.38;4.90;;;;;;;13.80;98.21;102240.13;5016886;28;20113;-75
2021/10/27 08:05:42;;;;;;;11.27;4.38;;;;;;;13.87;97.77;102241.16;5016595;28;20030;-75
2021/10/27 08:08:10;;;;;;;15.48;3.97;;;;;;;13.93;97.48;102237.78;4996039;28;20497;-74
2021/10/27 08:10:36;;;;;;;13.15;4.20;;;;;;;13.94;97.43;102242.22;4997154;28;20026;-75
2021/10/27 08:13:02;;;;;;;9.90;3.97;;;;;;;13.96;96.97;102240.53;4997208;28;20386;-75
2021/10/27 08:15:28;;;;;;;7.53;3.58;;;;;;;14.01;96.37;102249.44;5028362;28;20029;-75
2021/10/27 08:17:54;;;;;;;10.50;3.60;;;;;;;13.99;96.13;102253.81;5036739;28;20408;-75
2021/10/27 08:20:21;;;;;;;11.32;2.97;;;;;;;14.03;95.35;102253.03;5036382;28;20032;-74
2021/10/27 08:22:54;;;;;;;18.02;3.80;;;;;;;14.06;95.49;102250.47;5018652;28;20041;-75
2021/10/27 08:28:02;;;;;;;10.70;3.38;;;;;;;14.07;95.19;102244.31;5016733;28;20050;-75
2021/10/27 08:30:35;;;;;;;11.40;3.25;;;;;;;14.18;94.60;102238.41;5016485;28;20037;-74
2021/10/27 08:33:02;;;;;;;12.48;3.08;;;;;;;14.23;94.02;102244.69;5016421;28;20029;-74
2021/10/27 08:35:32;;;;;;;8.65;2.63;;;;;;;14.24;94.16;102252.66;5014373;28;20025;-75
2021/10/27 08:37:58;;;;;;;10.77;2.85;;;;;;;14.24;94.15;102249.13;5016194;28;20088;-75
2021/10/27 08:40:24;;;;;;;5.72;2.95;;;;;;;14.26;93.71;102256.25;5016346;28;20432;-74
2021/10/27 08:42:50;;;;;;;8.95;3.03;;;;;;;14.30;93.17;102252.81;5015141;28;20030;-77
2021/10/27 08:45:16;;;;;;;9.23;2.92;;;;;;;14.33;92.91;102254.66;5016078;28;20033;-77
2021/10/27 08:47:42;;;;;;;8.30;2.85;;;;;;;14.32;92.89;102244.91;5016130;28;20088;-77
2021/10/27 08:50:11;;;;;;;10.48;2.95;;;;;;;14.36;92.55;102243.22;5016191;28;20026;-77
2021/10/27 08:52:39;;;;;;;11.60;3.50;;;;;;;14.32;92.18;102256.41;5015995;28;20044;-78
2021/10/27 08:55:05;;;;;;;5.60;3.10;;;;;;;14.38;91.97;102255.66;5034679;28;20033;-79
2021/10/27 08:57:30;;;;;;;8.25;2.53;;;;;;;14.40;92.33;102259.22;5016815;28;20456;-78
2021/10/27 09:00:12;;;;;;;8.23;2.90;;;;;;;14.42;92.38;102254.88;5032234;28;20045;-77
2021/10/27 09:02:49;;;;;;;10.55;3.70;;;;;;;14.40;91.85;102264.50;5035219;28;20143;-78
2021/10/27 09:05:40;;;;;;;11.90;3.08;;;;;;;14.42;92.16;102262.81;5035861;28;20021;-80
2021/10/27 09:38:37;;;;;;;10.55;2.70;;;;;;;14.69;89.73;102268.72;5015687;28;20155;-79
2021/10/27 10:04:10;;;;;;;15.80;3.40;;;;;;;14.71;88.30;102296.16;5014697;28;20041;-76
2021/10/27 10:06:40;;;;;;;4.68;2.63;;;;;;;14.77;87.77;102297.22;5015495;28;20028;-76
2021/10/27 10:09:07;;;;;;;7.85;2.83;;;;;;;14.76;87.11;102279.50;5014578;28;20037;-77
2021/10/27 10:11:33;;;;;;;10.13;2.78;;;;;;;14.84;87.45;102275.28;5014245;28;20076;-77
2021/10/27 10:14:05;;;;;;;9.85;3.15;;;;;;;14.82;87.21;102274.31;5016701;28;20466;-79
2021/10/27 10:16:38;;;;;;;12.43;2.63;;;;;;;14.87;87.25;102276.19;5015859;28;20046;-79
2021/10/27 10:19:08;;;;;;;8.27;2.58;;;;;;;14.88;87.85;102283.28;5015543;28;20025;-79
2021/10/27 10:21:35;;;;;;;15.10;2.95;;;;;;;14.82;87.23;102286.69;5016639;28;20436;-80
2021/10/27 10:24:24;;;;;;;10.38;3.10;;;;;;;14.80;86.99;102301.69;5013967;28;20037;-78
2021/10/27 10:26:51;;;;;;;9.77;2.58;;;;;;;14.80;87.18;102286.66;5016027;28;20072;-79
2021/10/27 10:29:44;;;;;;;8.23;2.60;;;;;;;14.88;86.96;102299.19;5013832;28;20091;-80
2021/10/27 10:32:24;;;;;;;10.98;2.80;;;;;;;14.81;87.26;102301.72;5016488;28;20033;-80
2021/10/27 10:34:55;;;;;;;9.70;2.78;;;;;;;14.90;87.29;102302.78;5015205;28;20034;-80
2021/10/27 10:37:27;;;;;;;9.80;3.53;;;;;;;14.82;86.86;102300.84;5013885;28;20044;-80
2021/10/27 10:39:54;;;;;;;14.10;3.17;;;;;;;14.82;87.15;102300.84;5020091;28;20032;-81
2021/10/27 10:43:23;;;;;;;7.30;2.88;;;;;;;14.84;87.33;102304.44;5014920;28;20025;-80
2021/10/27 10:45:45;;;;;;;8.90;3.28;;;;;;;14.78;87.22;102306.91;5011313;28;20042;-79
2021/10/27 11:23:17;;;;;;;9.68;4.65;;;;;;;14.72;88.65;102314.75;5019888;28;20110;-83
2021/10/27 11:39:36;;;;;;;9.90;5.05;;;;;;;14.74;88.13;102273.25;5017212;28;20145;-80
2021/10/27 11:47:45;;;;;;;10.23;4.65;;;;;;;14.74;87.79;102262.66;5030017;28;20052;-81
2021/10/27 11:50:17;;;;;;;12.35;5.22;;;;;;;14.79;87.48;102263.66;5020711;28;20116;-80
2021/10/27 11:52:44;;;;;;;10.30;5.05;;;;;;;14.76;87.61;102260.03;5017810;28;20497;-81
2021/10/27 11:55:13;;;;;;;7.90;4.63;;;;;;;14.79;87.35;102263.66;5016678;28;20494;-80
2021/10/27 11:57:41;;;;;;;13.18;5.25;;;;;;;14.79;87.08;102268.97;5017831;28;20076;-80
2021/10/27 12:03:05;;;;;;;10.75;5.18;;;;;;;14.78;87.88;102261.00;5017687;28;20123;-80
2021/10/27 12:05:39;;;;;;;13.35;6.57;;;;;;;14.84;87.20;102251.41;5017623;28;20087;-80
2021/10/27 12:08:19;;;;;;;8.63;6.30;;;;;;;14.88;87.42;102247.09;5020967;28;20041;-80
2021/10/27 12:10:59;;;;;;;10.27;5.70;;;;;;;14.99;87.11;102249.97;5021017;28;20018;-80
2021/10/27 12:13:41;;;;;;;13.38;6.03;;;;;;;14.94;87.12;102241.03;5017230;28;20025;-81
2021/10/27 12:18:56;;;;;;;15.60;6.70;;;;;;;15.03;87.01;102237.66;5036336;28;20040;-81
2021/10/27 12:21:23;;;;;;;12.57;7.15;;;;;;;14.95;86.42;102232.22;5036463;28;20481;-81
2021/10/27 12:23:50;;;;;;;13.85;6.47;;;;;;;15.04;86.35;102231.50;5026197;28;20025;-79
2021/10/27 12:26:17;;;;;;;14.68;7.65;;;;;;;15.01;86.27;102237.63;5031283;28;20490;-81
2021/10/27 12:28:43;;;;;;;17.83;8.18;;;;;;;14.79;87.25;102226.56;5022417;28;20026;-81
2021/10/27 12:31:25;;;;;;;12.50;8.50;;;;;;;14.88;87.02;102224.97;5017689;28;20048;-81
2021/10/27 12:33:51;;;;;;;9.25;7.38;;;;;;;14.95;86.39;102232.22;5016490;28;20044;-81
2021/10/27 12:36:34;;;;;;;10.65;7.78;;;;;;;14.95;87.01;102221.63;5031961;28;20390;-82
2021/10/27 12:39:35;;;;;;;16.50;8.70;;;;;;;14.96;86.71;102224.28;5027508;28;20030;-82
2021/10/27 12:42:10;;;;;;;13.20;8.48;;;;;;;14.87;87.02;102225.81;5020265;28;20042;-81
2021/10/27 12:44:53;;;;;;;16.17;8.75;;;;;;;14.97;86.76;102217.22;5037680;28;20465;-82
2021/10/27 12:47:27;;;;;;;16.23;8.63;;;;;;;14.96;86.26;102213.69;5017307;28;20026;-81
2021/10/27 12:50:15;;;;;;;13.38;7.53;;;;;;;15.06;86.09;102219.19;5023463;28;20033;-81
2021/10/27 12:52:45;;;;;;;14.10;7.03;;;;;;;15.16;85.50;102199.91;5020052;28;20082;-83
2021/10/27 12:55:21;;;;;;;11.30;7.78;;;;;;;15.27;85.02;102211.63;5032896;28;20428;-79
2021/10/27 12:57:53;;;;;;;14.48;7.72;;;;;;;15.27;85.03;102208.09;5011077;28;20029;-79
2021/10/27 13:01:11;;;;;;;12.10;7.60;;;;;;;15.40;84.39;102195.97;5011644;28;20057;-80
2021/10/27 13:03:36;;;;;;;11.57;7.22;;;;;;;15.29;84.16;102198.41;5016120;28;20382;-81
2021/10/27 13:13:59;;;;;;;14.50;6.93;;;;;;;15.41;83.45;102197.72;5023037;28;20108;-79
2021/10/27 13:19:23;;;;;;;10.10;6.00;;;;;;;15.48;82.79;102187.25;5016514;28;19922;-81
2021/10/27 13:30:46;;;;;;;11.80;5.20;;;;;;;15.76;81.87;102181.53;5020692;28;20036;-81
2021/10/27 13:32:55;;;;;;;8.10;4.78;;;;;;;15.88;80.53;102181.75;5014885;28;20026;-80
2021/10/27 13:35:22;;;;;;;10.10;4.75;;;;;;;16.01;80.78;102182.88;5019527;28;20117;-82
2021/10/27 13:37:48;;;;;;;10.32;5.43;;;;;;;15.89;80.08;102178.25;5023242;28;20041;-81
2021/10/27 13:40:14;;;;;;;11.50;5.53;;;;;;;15.85;79.90;102174.63;5015955;28;20030;-82
2021/10/27 13:42:51;;;;;;;10.82;5.32;;;;;;;15.83;80.59;102184.34;5017288;28;20419;-81
2021/10/27 13:45:23;;;;;;;12.30;5.53;;;;;;;15.76;80.56;102186.84;5028028;28;20028;-80
2021/10/27 14:06:49;;;;;;;11.80;6.10;;;;;;;15.06;84.29;102192.66;5019654;28;19968;-81
2021/10/27 14:12:20;;;;;;;13.23;5.88;;;;;;;15.01;84.30;102190.78;5012063;28;20116;-80
2021/10/27 14:14:39;;;;;;;11.25;6.10;;;;;;;14.83;84.20;102190.44;5014028;28;20041;-78
2021/10/27 14:17:27;;;;;;;14.20;6.47;;;;;;;14.98;83.71;102189.84;5016503;28;20104;-79
2021/10/27 15:19:46;;;;;;;11.70;6.40;;;;;;;14.24;84.14;102165.28;4996011;28;20143;-77
2021/10/27 15:27:53;;;;;;;;;;;;;;;14.15;84.09;102159.81;5011573;28;20073;-78
2021/10/27 15:33:24;;;;;;;12.70;6.70;;;;;;;14.06;83.88;102149.00;5016200;28;20022;-79
2021/10/27 15:36:07;;;;;;;12.48;6.70;;;;;;;14.07;83.67;102146.38;5017381;28;20037;-77
2021/10/27 15:52:04;;;;;;;10.32;6.97;;;;;;;13.93;83.95;102166.31;5006368;28;20033;-76
2021/10/27 15:54:29;;;;;;;16.67;7.13;;;;;;;13.79;84.32;102155.41;5009395;28;20078;-77